ADDS METAR Data INFO
IDs: Format: Raw Decoded Include TAF

Data at: 2229 UTC 22 Aug 2017

KCWC 222215Z AUTO 09004KT 1 3/4SM HZ VV007 36/19 A2999 RMK AO2 T03580189
KCWC 222155Z AUTO 00000KT 10SM CLR 35/18 A3001 RMK AO2 LTG DSNT W T03450179
KCWC 222135Z AUTO 03003KT 10SM CLR 35/19 A3001 RMK AO2 LTG DSNT SE T03460192
KCWC 222115Z AUTO 33005KT 10SM CLR 34/20 A3002 RMK AO2 T03390196
KCWC 222055Z AUTO 29003KT 10SM CLR 34/20 A3002 RMK AO2 T03380196
KCWC 222035Z AUTO 35004KT 10SM CLR 33/19 A3003 RMK AO2 T03310194
KCWC 222015Z AUTO 26004KT 10SM CLR 33/19 A3005 RMK AO2 LTG DSNT S T03280190
KCWC 221955Z AUTO 26005KT 10SM CLR 33/19 A3006 RMK AO2 T03280191
KCWC 221935Z AUTO 27005KT 10SM SCT036 SCT047 33/18 A3007 RMK AO2 LTG DSNT W T03310182
KCWC 221915Z AUTO 28006KT 10SM CLR 34/19 A3008 RMK AO2 T03350192
KCWC 221855Z AUTO 27006KT 10SM SCT090 34/19 A3008 RMK AO2 LTG DSNT W T03360185
KCWC 221835Z AUTO 00000KT 10SM SCT090 33/19 A3008 RMK AO2 LTG DSNT W T03340189
KCWC 221815Z AUTO 25004KT 10SM SCT090 34/19 A3008 RMK AO2 LTG DSNT W T03380192
KCWC 221755Z AUTO 28005KT 10SM CLR 33/20 A3008 RMK AO2 LTG DSNT W T03340196 10334 20228
KCWC 221735Z AUTO 22007KT 10SM SCT085 33/20 A3009 RMK AO2 LTG DSNT W T03260196
KCWC 221715Z AUTO 27007KT 10SM SCT085 32/19 A3010 RMK AO2 LTG DSNT W T03230192
KCWC 221655Z AUTO 26009KT 10SM BKN085 33/19 A3010 RMK AO2 T03290189
KCWC 221635Z AUTO 26005KT 10SM SCT085 32/19 A3010 RMK AO2 T03210192
KCWC 221615Z AUTO 25007KT 10SM CLR 33/19 A3009 RMK AO2 T03290191
KCWC 221555Z AUTO 23006KT 10SM CLR 32/20 A3008 RMK AO2 T03210198
KCWC 221535Z AUTO 24006KT 10SM CLR 32/20 A3008 RMK AO2 T03160198
KCWC 221515Z AUTO 23007KT 10SM CLR 31/20 A3008 RMK AO2 T03050200
KCWC 221455Z AUTO 28004KT 10SM CLR 30/20 A3008 RMK AO2 T02970202
KCWC 221435Z AUTO 23003KT 10SM CLR 28/20 A3008 RMK AO2 T02800200
KCWC 221415Z AUTO 21004KT 10SM CLR 28/20 A3008 RMK AO2 T02760200
KCWC 221355Z AUTO 23007KT 10SM CLR 27/20 A3008 RMK AO2 T02690197
KCWC 221335Z AUTO 23006KT 10SM CLR 26/20 A3008 RMK AO2 T02620199
KCWC 221315Z AUTO 23005KT 10SM CLR 26/20 A3008 RMK AO2 T02550198
KCWC 221255Z AUTO 00000KT 10SM CLR 25/20 A3008 RMK AO2 T02450196
KCWC 221235Z AUTO 21003KT 10SM CLR 24/20 A3007 RMK AO2 T02360195
KCWC 221215Z AUTO 21005KT 10SM CLR 23/20 A3006 RMK AO2 T02310195
KCWC 221155Z AUTO 20006KT 7SM CLR 24/20 A3006 RMK AO2 T02350195 10262 20224
KCWC 221135Z AUTO 20005KT 10SM CLR 23/20 A3005 RMK AO2 T02310195
KCWC 221115Z AUTO 00000KT 10SM CLR 23/20 A3005 RMK AO2 T02310195
KCWC 221055Z AUTO 20004KT 10SM CLR 23/20 A3005 RMK AO2 T02330196
KCWC 221035Z AUTO 19003KT 10SM CLR 23/20 A3005 RMK AO2 T02300196
KCWC 221015Z AUTO 20004KT 10SM CLR 24/20 A3005 RMK AO2 T02420196
KCWC 220955Z AUTO 21003KT 10SM CLR 24/20 A3005 RMK AO2 T02370198
KCWC 220935Z AUTO 19003KT 10SM CLR 24/20 A3004 RMK AO2 T02380200
KCWC 220915Z AUTO 17003KT 10SM CLR 23/20 A3004 RMK AO2 T02320200
KCWC 220855Z AUTO 18005KT 10SM CLR 24/20 A3005 RMK AO2 T02400202
KCWC 220835Z AUTO 17005KT 10SM CLR 25/20 A3005 RMK AO2 T02450200
KCWC 220815Z AUTO 17006KT 10SM CLR 25/20 A3005 RMK AO2 T02450200
KCWC 220755Z AUTO 17007KT 10SM CLR 25/20 A3005 RMK AO2 T02500198
KCWC 220735Z AUTO 17007KT 10SM CLR 25/20 A3005 RMK AO2 LTG DSNT NW T02480198
KCWC 220715Z AUTO 17006KT 10SM CLR 26/20 A3006 RMK AO2 T02550200
KCWC 220655Z AUTO 17006KT 10SM CLR 26/20 A3006 RMK AO2 T02570202
KCWC 220635Z AUTO 17006KT 10SM CLR 26/21 A3006 RMK AO2 T02560205
KCWC 220615Z AUTO 17007KT 10SM CLR 26/21 A3006 RMK AO2 T02600205
KCWC 220555Z AUTO 16008KT 10SM CLR 26/21 A3006 RMK AO2 T02620206 10341 20262 403520233
KCWC 220535Z AUTO 16007KT 10SM CLR 27/21 A3006 RMK AO2 T02650206
KCWC 220515Z AUTO 16008KT 10SM CLR 27/21 A3006 RMK AO2 T02670207
KCWC 220455Z AUTO 16008KT 10SM CLR 27/21 A3007 RMK AO2 T02700207
KCWC 220435Z AUTO 16009KT 10SM CLR 27/21 A3006 RMK AO2 T02700207
KCWC 220415Z AUTO 16009KT 10SM CLR 27/21 A3006 RMK AO2 T02730207
KCWC 220355Z AUTO 16009KT 10SM CLR 28/21 A3006 RMK AO2 T02760206
KCWC 220335Z AUTO 15008KT 10SM CLR 28/21 A3006 RMK AO2 T02800206
KCWC 220315Z AUTO 15007KT 10SM CLR 28/21 A3006 RMK AO2 T02820206
KCWC 220255Z AUTO 15007KT 10SM CLR 29/21 A3005 RMK AO2 T02860206
KCWC 220235Z AUTO 15007KT 10SM CLR 29/21 A3005 RMK AO2 T02900207
KCWC 220215Z AUTO 14006KT 10SM CLR 29/21 A3004 RMK AO2 T02900210
KCWC 220155Z AUTO 14006KT 10SM CLR 29/21 A3003 RMK AO2 T02920211
KCWC 220135Z AUTO 13006KT 10SM CLR 30/21 A3002 RMK AO2 LTG DSNT NW T03000213
KCWC 220115Z AUTO 14007KT 10SM CLR 31/21 A3001 RMK AO2 T03070211
KCWC 220055Z AUTO 14008KT 10SM CLR 32/21 A3001 RMK AO2 T03200206
KCWC 220035Z AUTO 14011KT 10SM CLR 33/19 A3001 RMK AO2 T03310192
KCWC 220015Z AUTO 16011G17KT 10SM CLR 34/19 A3001 RMK AO2 LTG DSNT W T03370194
KCWC 212355Z AUTO 16010G15KT 10SM CLR 34/19 A3001 RMK AO2 T03420191 10352 20319
KCWC 212335Z AUTO 15013KT 10SM CLR 35/19 A3001 RMK AO2 T03450192
KCWC 212315Z AUTO 17011G17KT 10SM CLR 35/19 A3001 RMK AO2 T03470188
KCWC 212255Z AUTO 18010G17KT 10SM SCT070 34/19 A3002 RMK AO2 T03440188
KCWC 212235Z AUTO 19008KT 10SM SCT070 35/19 A3003 RMK AO2 T03480188
KCWC 212215Z AUTO 19008KT 10SM CLR 35/19 A3003 RMK AO2 T03460190
KCWC 212155Z AUTO 14012G16KT 10SM CLR 35/20 A3004 RMK AO2 T03510197
KCWC 212135Z AUTO 21006KT 7SM SCT060 35/19 A3004 RMK AO2 T03450191
KCWC 212115Z AUTO 17009G16KT 7SM SCT060 34/20 A3005 RMK AO2 T03430198
KCWC 212055Z AUTO 15007KT 120V180 10SM CLR 34/20 A3005 RMK AO2 T03400196
KCWC 212035Z AUTO 15012G17KT 10SM CLR 35/20 A3006 RMK AO2 T03450197
KCWC 212015Z AUTO 19010G19KT 10SM CLR 34/20 A3006 RMK AO2 T03440197
KCWC 211955Z AUTO 18011G17KT 10SM CLR 34/20 A3007 RMK AO2 T03420195
KCWC 211935Z AUTO 20009G14KT 10SM CLR 34/20 A3007 RMK AO2 T03370198
KCWC 211915Z AUTO 19009KT 10SM CLR 33/20 A3007 RMK AO2 T03320200
KCWC 211855Z AUTO 18005KT 10SM CLR 33/20 A3008 RMK AO2 T03260201
KCWC 211835Z AUTO 20007KT 10SM CLR 32/20 A3008 RMK AO2 T03200196
KCWC 211815Z AUTO 18007KT 10SM CLR 32/20 A3008 RMK AO2 T03190195
KCWC 211755Z AUTO 18007KT 10SM CLR 32/19 A3008 RMK AO2 T03210192 10330 20233
KCWC 211735Z AUTO 19007KT 10SM CLR 33/19 A3009 RMK AO2 T03260194
KCWC 211715Z AUTO 18008G15KT 130V190 10SM CLR 33/20 A3010 RMK AO2 T03250197
KCWC 211655Z AUTO 19008KT 10SM CLR 32/20 A3010 RMK AO2 T03240201
KCWC 211635Z AUTO 17007G14KT 130V210 10SM CLR 32/20 A3010 RMK AO2 T03180196
KCWC 211615Z AUTO 20009G15KT 130V220 10SM CLR 32/19 A3011 RMK AO2 T03170191
KCWC 211555Z AUTO 20012G15KT 10SM CLR 31/20 A3010 RMK AO2 T03110198
KCWC 211535Z AUTO 19008G14KT 110V210 10SM CLR 31/20 A3010 RMK AO2 T03070195
KCWC 211515Z AUTO 20007G15KT 140V240 10SM CLR 30/19 A3010 RMK AO2 T03020194
KCWC 211455Z AUTO 16006KT 140V220 10SM CLR 30/21 A3010 RMK AO2 T02950205
KCWC 211435Z AUTO 19010KT 150V220 10SM CLR 29/21 A3009 RMK AO2 T02860206
KCWC 211415Z AUTO 19007KT 10SM CLR 28/21 A3009 RMK AO2 T02800207
KCWC 211355Z AUTO 18007KT 10SM CLR 28/21 A3009 RMK AO2 T02750209
KCWC 211335Z AUTO 19007KT 10SM CLR 27/21 A3008 RMK AO2 T02670206
KCWC 211315Z AUTO 19004KT 10SM CLR 26/21 A3008 RMK AO2 T02570210
KCWC 211255Z AUTO 23004KT 10SM CLR 25/21 A3008 RMK AO2 T02470206
KCWC 211235Z AUTO 18005KT 10SM CLR 24/21 A3007 RMK AO2 T02360207
KCWC 211215Z AUTO 19004KT 7SM CLR 24/21 A3006 RMK AO2 T02350206
KCWC 211155Z AUTO 18004KT 10SM CLR 23/21 A3005 RMK AO2 70001 T02340206 10265 20234
KCWC 211135Z AUTO 18006KT 10SM CLR 24/21 A3005 RMK AO2 T02350207
KCWC 211115Z AUTO 18007KT 10SM CLR 24/21 A3005 RMK AO2 T02380210
KCWC 211055Z AUTO 17006KT 10SM CLR 24/21 A3005 RMK AO2 LTG DSNT W T02380211
KCWC 211035Z AUTO 17007KT 10SM CLR 24/21 A3005 RMK AO2 T02390213